createdAt,value
2018-01-29T00:01:41.119Z,8.00
2018-01-29T00:04:13.624Z,8.38
2018-01-29T00:06:46.125Z,7.27
2018-01-29T00:09:18.655Z,8.27
2018-01-29T00:11:51.151Z,8.73
2018-01-29T00:14:23.700Z,9.63
2018-01-29T00:16:56.206Z,10.60
2018-01-29T00:19:28.731Z,11.13
2018-01-29T00:22:01.257Z,11.67
2018-01-29T00:24:33.794Z,12.10
2018-01-29T00:27:06.305Z,12.37
2018-01-29T00:29:42.653Z,11.77
2018-01-29T00:32:15.162Z,13.17
2018-01-29T00:34:47.704Z,14.30
2018-01-29T00:37:20.243Z,15.33
2018-01-29T00:39:52.765Z,15.67
2018-01-29T00:42:25.263Z,13.77
2018-01-29T00:44:57.808Z,12.47
2018-01-29T00:47:30.329Z,16.63
2018-01-29T00:50:02.863Z,15.87
2018-01-29T00:52:35.358Z,15.30
2018-01-29T00:55:07.881Z,13.97
2018-01-29T00:57:40.389Z,15.77
2018-01-29T01:00:12.937Z,16.57
2018-01-29T01:02:45.501Z,15.53
2018-01-29T01:05:18.041Z,17.10
2018-01-29T01:07:51.643Z,14.13
2018-01-29T01:10:24.178Z,16.62
2018-01-29T01:12:56.757Z,15.43
2018-01-29T01:15:29.293Z,15.47
2018-01-29T01:18:01.800Z,14.47
2018-01-29T01:20:34.322Z,15.97
2018-01-29T01:23:06.821Z,18.07
2018-01-29T01:25:39.350Z,16.02
2018-01-29T01:28:11.861Z,18.50
2018-01-29T01:30:44.390Z,18.45
2018-01-29T01:33:16.890Z,21.50
2018-01-29T01:35:49.418Z,24.63
2018-01-29T01:38:21.931Z,25.30
2018-01-29T01:40:56.689Z,28.50
2018-01-29T01:43:29.210Z,26.00
2018-01-29T01:46:01.741Z,27.70
2018-01-29T01:48:34.250Z,25.97
2018-01-29T01:51:06.759Z,29.03
2018-01-29T01:53:39.298Z,29.97
2018-01-29T01:56:11.816Z,27.87
2018-01-29T01:58:44.328Z,26.55
2018-01-29T02:01:16.861Z,23.70
2018-01-29T02:03:49.387Z,26.77
2018-01-29T02:06:21.960Z,21.45
2018-01-29T02:08:54.590Z,21.67
2018-01-29T02:11:27.105Z,23.27
2018-01-29T02:13:59.703Z,20.85
2018-01-29T02:16:32.332Z,21.60
2018-01-29T02:19:04.958Z,20.80
2018-01-29T02:21:37.482Z,19.70
2018-01-29T02:24:10.012Z,17.97
2018-01-29T02:26:42.515Z,19.77
2018-01-29T02:29:15.078Z,17.30
2018-01-29T02:31:47.570Z,19.50
2018-01-29T02:34:20.087Z,19.87
2018-01-29T02:36:52.635Z,20.33
2018-01-29T02:39:25.166Z,18.00
2018-01-29T02:41:57.754Z,19.10
2018-01-29T02:44:30.325Z,17.23
2018-01-29T02:47:02.844Z,16.70
2018-01-29T02:49:35.369Z,17.73
2018-01-29T02:52:07.896Z,16.63
2018-01-29T02:54:40.485Z,15.33
2018-01-29T02:57:12.996Z,18.70
2018-01-29T02:59:45.526Z,16.07
2018-01-29T03:02:18.039Z,17.23
2018-01-29T03:04:50.560Z,14.87
2018-01-29T03:07:23.072Z,16.53
2018-01-29T03:09:55.629Z,16.73
2018-01-29T03:12:28.160Z,16.03
2018-01-29T03:15:00.687Z,16.73
2018-01-29T03:17:33.199Z,17.53
2018-01-29T03:20:05.719Z,17.90
2018-01-29T03:22:38.217Z,19.20
2018-01-29T03:25:11.782Z,16.73
2018-01-29T03:27:44.294Z,19.27
2018-01-29T03:30:16.828Z,18.00
2018-01-29T03:32:49.343Z,20.23
2018-01-29T03:35:21.867Z,18.23
2018-01-29T03:37:54.423Z,19.80
2018-01-29T03:40:26.992Z,17.27
2018-01-29T03:42:59.512Z,17.80
2018-01-29T03:45:32.024Z,19.93
2018-01-29T03:48:04.535Z,17.60
2018-01-29T03:50:37.057Z,17.80
2018-01-29T03:53:09.576Z,16.83
2018-01-29T03:55:42.112Z,18.80
2018-01-29T03:58:14.627Z,17.13
2018-01-29T04:00:47.179Z,20.10
2018-01-29T04:03:19.687Z,18.43
2018-01-29T04:05:52.220Z,21.33
2018-01-29T04:08:24.791Z,20.17
2018-01-29T04:10:57.336Z,18.47
2018-01-29T04:13:29.851Z,18.20
2018-01-29T04:16:02.402Z,17.43
2018-01-29T04:18:34.905Z,20.47
2018-01-29T04:21:07.432Z,16.10
2018-01-29T04:23:39.936Z,18.43
2018-01-29T04:26:12.448Z,16.33
2018-01-29T04:28:44.945Z,16.00
2018-01-29T04:31:17.476Z,16.05
2018-01-29T04:33:49.982Z,17.03
2018-01-29T04:36:22.516Z,15.57
2018-01-29T04:38:55.033Z,16.47
2018-01-29T04:41:27.582Z,14.40
2018-01-29T04:44:00.094Z,13.07
2018-01-29T04:46:32.621Z,13.90
2018-01-29T04:49:05.141Z,15.53
2018-01-29T04:51:37.670Z,12.93
2018-01-29T04:54:10.172Z,12.90
2018-01-29T04:56:42.698Z,12.70
2018-01-29T04:59:15.211Z,13.27
2018-01-29T05:01:47.732Z,14.13
2018-01-29T05:04:20.227Z,15.00
2018-01-29T05:06:52.738Z,17.07
2018-01-29T05:09:25.253Z,16.80
2018-01-29T05:11:57.791Z,15.60
2018-01-29T05:14:30.315Z,18.10
2018-01-29T05:17:02.853Z,15.57
2018-01-29T05:19:35.376Z,15.47
2018-01-29T05:22:07.906Z,14.93
2018-01-29T05:24:40.407Z,14.77
2018-01-29T05:27:12.955Z,15.00
2018-01-29T05:29:45.475Z,15.00
2018-01-29T05:32:17.985Z,15.17
2018-01-29T05:34:50.479Z,14.47
2018-01-29T05:37:40.716Z,14.10
2018-01-29T05:40:13.228Z,12.13
2018-01-29T05:42:45.726Z,11.90
2018-01-29T05:45:18.261Z,11.37
2018-01-29T05:47:50.763Z,10.37
2018-01-29T05:50:23.290Z,10.07
2018-01-29T05:52:55.804Z,9.90
2018-01-29T05:55:28.324Z,10.70
2018-01-29T05:58:01.538Z,9.43
2018-01-29T06:00:34.060Z,11.53
2018-01-29T06:03:06.556Z,10.03
2018-01-29T06:05:39.077Z,11.33
2018-01-29T06:08:11.681Z,9.93
2018-01-29T06:10:44.211Z,10.13
2018-01-29T06:13:16.707Z,9.93
2018-01-29T06:15:49.231Z,9.30
2018-01-29T06:18:21.731Z,8.83
2018-01-29T06:20:54.272Z,10.00
2018-01-29T06:23:26.790Z,9.07
2018-01-29T06:25:59.306Z,8.47
2018-01-29T06:28:31.788Z,8.27
2018-01-29T06:31:04.310Z,8.83
2018-01-29T06:33:36.843Z,8.17
2018-01-29T06:36:09.378Z,7.97
2018-01-29T06:38:41.867Z,9.10
2018-01-29T06:41:15.396Z,7.07
2018-01-29T06:43:48.015Z,8.40
2018-01-29T06:46:20.529Z,7.00
2018-01-29T06:48:53.100Z,7.43
2018-01-29T06:51:25.614Z,7.60
2018-01-29T06:53:58.123Z,6.87
2018-01-29T06:56:30.712Z,7.00
2018-01-29T06:59:03.227Z,7.40
2018-01-29T07:01:35.760Z,7.33
2018-01-29T07:04:08.267Z,7.90
2018-01-29T07:06:40.793Z,6.77
2018-01-29T07:09:13.332Z,7.93
2018-01-29T07:11:45.861Z,7.50
2018-01-29T07:14:18.355Z,6.40
2018-01-29T07:16:50.877Z,6.83
2018-01-29T07:19:23.385Z,8.03
2018-01-29T07:21:55.920Z,6.80
2018-01-29T07:24:28.436Z,7.77
2018-01-29T07:27:00.956Z,7.67
2018-01-29T07:29:33.465Z,8.33
2018-01-29T07:32:05.977Z,7.40
2018-01-29T07:34:38.477Z,7.47
2018-01-29T07:37:11.003Z,7.43
2018-01-29T07:39:44.111Z,7.90
2018-01-29T07:42:16.648Z,8.03
2018-01-29T07:44:49.152Z,7.83
2018-01-29T07:47:21.680Z,7.10
2018-01-29T07:49:54.182Z,8.03
2018-01-29T07:52:26.746Z,9.37
2018-01-29T07:54:59.250Z,7.30
2018-01-29T07:57:31.785Z,7.97
2018-01-29T08:00:04.280Z,8.10
2018-01-29T08:02:36.805Z,7.80
2018-01-29T08:05:09.309Z,7.20
2018-01-29T08:07:41.852Z,7.97
2018-01-29T08:10:14.388Z,8.00
2018-01-29T08:12:46.941Z,7.13
2018-01-29T08:15:20.266Z,7.27
2018-01-29T08:17:52.797Z,7.60
2018-01-29T08:20:25.424Z,7.37
2018-01-29T08:22:57.980Z,7.10
2018-01-29T08:25:30.512Z,6.40
2018-01-29T08:28:03.031Z,6.63
2018-01-29T08:30:35.543Z,7.33
2018-01-29T08:33:08.260Z,6.03
2018-01-29T08:35:40.815Z,5.50
2018-01-29T08:38:13.325Z,5.60
2018-01-29T08:40:45.864Z,5.77
2018-01-29T08:43:18.412Z,5.80
2018-01-29T08:45:50.931Z,5.73
2018-01-29T08:48:23.476Z,5.57
2018-01-29T08:50:56.001Z,5.53
2018-01-29T08:53:28.530Z,6.30
2018-01-29T08:56:01.032Z,5.23
2018-01-29T08:58:33.550Z,5.73
2018-01-29T09:01:06.105Z,5.13
2018-01-29T09:03:38.608Z,5.23
2018-01-29T09:06:11.131Z,5.63
2018-01-29T09:08:43.660Z,4.60
2018-01-29T09:11:16.348Z,5.60
2018-01-29T09:13:48.858Z,5.43
2018-01-29T09:16:21.376Z,5.63
2018-01-29T09:18:53.901Z,4.47
2018-01-29T09:21:27.482Z,5.33
2018-01-29T09:24:00.080Z,5.03
2018-01-29T09:26:32.642Z,4.83
2018-01-29T09:29:05.161Z,4.70
2018-01-29T09:31:37.692Z,4.10
2018-01-29T09:34:10.227Z,4.20
2018-01-29T09:36:42.760Z,4.27
2018-01-29T09:39:15.260Z,4.00
2018-01-29T09:41:47.860Z,4.13
2018-01-29T09:44:20.407Z,3.97
2018-01-29T09:46:52.927Z,3.80
2018-01-29T09:49:25.448Z,3.60
2018-01-29T09:51:58.055Z,3.70
2018-01-29T09:54:30.580Z,4.37
2018-01-29T09:57:03.113Z,3.93
2018-01-29T09:59:35.625Z,3.73
2018-01-29T10:02:08.161Z,4.20
2018-01-29T10:04:40.675Z,4.17
2018-01-29T10:07:13.205Z,4.03
2018-01-29T10:09:45.781Z,4.53
2018-01-29T10:12:18.301Z,3.93
2018-01-29T10:14:50.830Z,4.97
2018-01-29T10:17:23.592Z,3.93
2018-01-29T10:19:56.124Z,3.90
2018-01-29T10:22:28.648Z,3.70
2018-01-29T10:25:01.157Z,3.73
2018-01-29T10:27:33.679Z,3.70
2018-01-29T10:30:06.168Z,3.33
2018-01-29T10:32:38.695Z,3.60
2018-01-29T10:35:11.217Z,3.50
2018-01-29T10:37:43.788Z,3.23
2018-01-29T10:40:16.279Z,3.53
2018-01-29T10:42:48.795Z,3.20
2018-01-29T10:45:21.304Z,4.03
2018-01-29T10:47:53.820Z,3.37
2018-01-29T10:50:26.319Z,2.85
2018-01-29T10:52:58.844Z,3.40
2018-01-29T10:55:31.471Z,3.55
2018-01-29T10:58:03.983Z,3.13
2018-01-29T11:00:42.085Z,3.60
2018-01-29T11:03:14.604Z,2.90
2018-01-29T11:05:47.223Z,3.33
2018-01-29T11:08:19.772Z,2.95
2018-01-29T11:10:52.280Z,2.67
2018-01-29T11:13:24.826Z,2.85
2018-01-29T11:15:57.363Z,3.00
2018-01-29T11:18:29.887Z,3.03
2018-01-29T11:21:02.381Z,2.87
2018-01-29T11:23:34.904Z,2.70
2018-01-29T11:26:07.406Z,2.77
2018-01-29T11:28:39.925Z,2.93
2018-01-29T11:31:12.435Z,2.53
2018-01-29T11:33:44.950Z,2.78
2018-01-29T11:36:17.456Z,2.30
2018-01-29T11:38:50.036Z,2.20
2018-01-29T11:41:22.521Z,2.80
2018-01-29T11:43:55.081Z,2.67
2018-01-29T11:46:27.581Z,2.33
2018-01-29T11:49:00.095Z,2.30
2018-01-29T11:51:32.591Z,3.47
2018-01-29T11:54:05.113Z,2.60
2018-01-29T11:56:37.598Z,2.83
2018-01-29T11:59:10.117Z,2.55
2018-01-29T12:01:42.610Z,2.67
2018-01-29T12:04:15.115Z,2.50
2018-01-29T12:06:47.607Z,3.03
2018-01-29T12:09:20.129Z,2.40
2018-01-29T12:11:52.630Z,2.80
2018-01-29T12:14:25.198Z,2.63
2018-01-29T12:16:57.711Z,2.50
2018-01-29T12:19:30.244Z,3.50
2018-01-29T12:22:02.781Z,2.50
2018-01-29T12:24:35.322Z,2.23
2018-01-29T12:27:07.816Z,3.10
2018-01-29T12:29:40.338Z,2.23
2018-01-29T12:32:12.845Z,2.87
2018-01-29T12:34:45.347Z,2.73
2018-01-29T12:37:17.849Z,2.47
2018-01-29T12:39:50.366Z,2.77
2018-01-29T12:42:22.876Z,2.30
2018-01-29T12:44:55.415Z,2.03
2018-01-29T12:47:27.933Z,2.60
2018-01-29T12:50:00.416Z,2.70
2018-01-29T12:52:32.935Z,2.67
2018-01-29T12:55:05.428Z,2.60
2018-01-29T12:57:37.942Z,2.50
2018-01-29T13:00:10.440Z,2.23
2018-01-29T13:02:42.955Z,1.80
2018-01-29T13:05:15.441Z,1.93
2018-01-29T13:07:47.961Z,2.33
2018-01-29T13:10:20.459Z,2.57
2018-01-29T13:12:52.972Z,2.30
2018-01-29T13:15:25.467Z,1.87
2018-01-29T13:17:57.987Z,1.90
2018-01-29T13:20:30.479Z,2.12
2018-01-29T13:23:02.988Z,1.70
2018-01-29T13:25:35.478Z,1.70
2018-01-29T13:28:07.983Z,1.60
2018-01-29T13:30:40.485Z,1.73
2018-01-29T13:33:12.995Z,1.57
2018-01-29T13:35:45.496Z,1.53
2018-01-29T13:38:18.978Z,1.30
2018-01-29T13:40:51.476Z,1.50
2018-01-29T13:43:23.988Z,1.60
2018-01-29T13:45:56.587Z,2.37
2018-01-29T13:48:29.108Z,2.10
2018-01-29T13:51:01.600Z,2.40
2018-01-29T13:53:34.109Z,2.13
2018-01-29T13:56:06.608Z,1.90
2018-01-29T13:58:39.136Z,1.70
2018-01-29T14:01:11.688Z,1.70
2018-01-29T14:03:44.195Z,1.43
2018-01-29T14:06:16.686Z,1.90
2018-01-29T14:08:49.208Z,2.10
2018-01-29T14:11:21.691Z,2.27
2018-01-29T14:13:54.216Z,2.40
2018-01-29T14:16:26.715Z,2.40
2018-01-29T14:18:59.226Z,2.10
2018-01-29T14:21:31.724Z,3.50
2018-01-29T14:24:04.438Z,2.63
2018-01-29T14:26:36.941Z,2.60
2018-01-29T14:29:09.460Z,2.40
2018-01-29T14:31:42.035Z,2.20
2018-01-29T14:34:14.564Z,2.60
2018-01-29T14:36:47.077Z,2.50
2018-01-29T14:39:19.594Z,2.80
2018-01-29T14:41:52.090Z,2.70
2018-01-29T14:44:24.625Z,2.40
2018-01-29T14:46:57.129Z,2.30
2018-01-29T14:49:29.680Z,2.40
2018-01-29T14:52:02.196Z,2.10
2018-01-29T14:54:34.706Z,2.13
2018-01-29T14:57:07.196Z,2.37
2018-01-29T14:59:39.723Z,2.40
2018-01-29T15:02:12.225Z,2.10
2018-01-29T15:04:44.753Z,2.23
2018-01-29T15:07:17.260Z,2.47
2018-01-29T15:09:49.776Z,2.37
2018-01-29T15:12:22.286Z,2.20
2018-01-29T15:14:54.797Z,2.37
2018-01-29T15:17:27.292Z,2.30
2018-01-29T15:19:59.814Z,2.10
2018-01-29T15:22:32.327Z,2.67
2018-01-29T15:25:04.845Z,2.10
2018-01-29T15:27:37.352Z,2.27
2018-01-29T15:30:09.865Z,2.07
2018-01-29T15:32:42.372Z,2.33
2018-01-29T15:35:14.888Z,2.07
2018-01-29T15:37:47.381Z,2.20
2018-01-29T15:40:19.899Z,2.10
2018-01-29T15:42:52.393Z,2.20
2018-01-29T15:45:24.986Z,2.30
2018-01-29T15:47:57.495Z,2.23
2018-01-29T15:50:30.012Z,2.17
2018-01-29T15:53:02.503Z,2.47
2018-01-29T15:55:35.033Z,2.33
2018-01-29T15:58:07.539Z,2.60
2018-01-29T16:00:40.063Z,2.33
2018-01-29T16:03:12.563Z,2.40
2018-01-29T16:05:45.075Z,2.20
2018-01-29T16:08:17.574Z,2.20
2018-01-29T16:10:50.095Z,2.40
2018-01-29T16:13:22.593Z,2.17
2018-01-29T16:15:55.151Z,2.70
2018-01-29T16:18:27.655Z,2.87
2018-01-29T16:21:00.198Z,2.57
2018-01-29T16:23:32.737Z,3.37
2018-01-29T16:26:05.261Z,3.23
2018-01-29T16:28:37.782Z,3.53
2018-01-29T16:31:10.281Z,3.30
2018-01-29T16:33:42.806Z,3.10
2018-01-29T16:36:15.304Z,3.17
2018-01-29T16:38:47.815Z,3.07
2018-01-29T16:41:20.311Z,3.40
2018-01-29T16:43:52.835Z,4.80
2018-01-29T16:46:25.375Z,3.37
2018-01-29T16:48:57.896Z,3.97
2018-01-29T16:51:30.438Z,3.70
2018-01-29T16:54:02.975Z,2.80
2018-01-29T16:56:35.485Z,3.30
2018-01-29T16:59:08.005Z,3.80
2018-01-29T17:01:40.501Z,3.20
2018-01-29T17:04:13.013Z,3.90
2018-01-29T17:06:45.509Z,2.60
2018-01-29T17:09:18.014Z,2.90
2018-01-29T17:11:50.548Z,2.97
2018-01-29T17:14:23.135Z,3.00
2018-01-29T17:16:58.015Z,2.93
2018-01-29T17:19:30.533Z,1.60
2018-01-29T17:22:03.054Z,1.63
2018-01-29T17:24:35.577Z,1.30
2018-01-29T17:27:09.087Z,1.10
2018-01-29T17:29:41.612Z,0.90
2018-01-29T17:32:14.100Z,1.10
2018-01-29T17:34:46.622Z,2.00
2018-01-29T17:37:19.124Z,1.40
2018-01-29T17:39:51.679Z,1.63
2018-01-29T17:42:24.183Z,1.50
2018-01-29T17:44:56.721Z,2.20
2018-01-29T17:47:29.228Z,1.23
2018-01-29T17:50:01.743Z,2.00
2018-01-29T17:52:34.239Z,1.77
2018-01-29T17:55:06.778Z,1.30
2018-01-29T17:57:39.286Z,1.23
2018-01-29T18:00:11.807Z,0.90
2018-01-29T18:02:44.307Z,0.90
2018-01-29T18:05:16.824Z,0.70
2018-01-29T18:07:49.376Z,0.60
2018-01-29T18:10:21.955Z,0.70
2018-01-29T18:12:54.462Z,0.57
2018-01-29T18:15:27.061Z,0.80
2018-01-29T18:17:59.618Z,0.47
2018-01-29T18:20:32.135Z,0.60
2018-01-29T18:23:04.630Z,0.70
2018-01-29T18:25:37.143Z,0.77
2018-01-29T18:28:11.146Z,0.90
2018-01-29T18:30:43.840Z,0.80
2018-01-29T18:33:16.463Z,0.83
2018-01-29T18:35:48.996Z,0.80
2018-01-29T18:38:21.494Z,0.60
2018-01-29T18:40:54.030Z,0.60
2018-01-29T18:43:27.465Z,0.97
2018-01-29T18:45:59.978Z,0.67
2018-01-29T18:48:32.503Z,0.60
2018-01-29T18:51:05.019Z,0.70
2018-01-29T18:53:37.627Z,0.73
2018-01-29T18:56:10.295Z,0.80
2018-01-29T18:58:42.818Z,0.77
2018-01-29T19:01:15.388Z,0.70
2018-01-29T19:03:47.880Z,0.70
2018-01-29T19:06:20.421Z,0.80
2018-01-29T19:08:52.923Z,1.07
2018-01-29T19:11:25.436Z,0.80
2018-01-29T19:13:57.966Z,0.60
2018-01-29T19:16:30.524Z,0.60
2018-01-29T19:19:03.016Z,0.50
2018-01-29T19:21:35.528Z,0.80
2018-01-29T19:24:08.071Z,0.70
2018-01-29T19:26:40.592Z,0.80
2018-01-29T19:29:13.077Z,0.93
2018-01-29T19:31:45.585Z,0.73
2018-01-29T19:34:18.100Z,1.00
2018-01-29T19:36:50.629Z,1.40
2018-01-29T19:39:23.156Z,1.10
2018-01-29T19:41:55.690Z,1.07
2018-01-29T19:44:28.194Z,0.73
2018-01-29T19:47:00.742Z,1.33
2018-01-29T19:49:33.227Z,1.70
2018-01-29T19:52:05.889Z,1.20
2018-01-29T19:54:38.448Z,1.37
2018-01-29T19:57:10.966Z,1.00
2018-01-29T19:59:43.590Z,1.60
2018-01-29T20:02:16.116Z,1.07
2018-01-29T20:04:48.668Z,1.13
2018-01-29T20:07:21.238Z,0.87
2018-01-29T20:09:54.231Z,0.70
2018-01-29T20:12:26.946Z,0.80
2018-01-29T20:15:00.451Z,0.90
2018-01-29T20:17:32.936Z,1.20
2018-01-29T20:20:05.461Z,1.30
2018-01-29T20:22:37.953Z,1.20
2018-01-29T20:25:11.201Z,1.90
2018-01-29T20:27:43.688Z,1.63
2018-01-29T20:30:16.193Z,2.40
2018-01-29T20:32:48.694Z,1.90
2018-01-29T20:35:21.235Z,2.77
2018-01-29T20:37:53.711Z,1.93
2018-01-29T20:40:26.346Z,2.37
2018-01-29T20:42:58.840Z,2.50
2018-01-29T20:45:31.428Z,2.37
2018-01-29T20:48:03.999Z,1.93
2018-01-29T20:50:36.818Z,2.27
2018-01-29T20:53:09.382Z,2.20
2018-01-29T20:55:42.348Z,2.00
2018-01-29T20:58:14.855Z,2.30
2018-01-29T21:00:47.392Z,2.43
2018-01-29T21:03:19.884Z,2.47
2018-01-29T21:05:52.410Z,2.40
2018-01-29T21:08:34.420Z,2.57
2018-01-29T21:11:06.919Z,2.67
2018-01-29T21:13:39.410Z,3.07
2018-01-29T21:16:11.933Z,2.77
2018-01-29T21:18:44.765Z,2.50
2018-01-29T21:21:17.274Z,2.50
2018-01-29T21:23:49.764Z,3.07
2018-01-29T21:26:22.268Z,3.07
2018-01-29T21:28:54.781Z,2.37
2018-01-29T21:31:27.379Z,3.13
2018-01-29T21:33:59.941Z,2.93
2018-01-29T21:36:32.472Z,2.87
2018-01-29T21:39:05.024Z,3.00
2018-01-29T21:41:37.547Z,3.47
2018-01-29T21:44:10.032Z,3.93
2018-01-29T21:46:42.660Z,3.27
2018-01-29T21:49:15.153Z,3.47
2018-01-29T21:51:47.667Z,3.10
2018-01-29T21:54:20.158Z,3.10
2018-01-29T21:56:52.725Z,3.77
2018-01-29T21:59:25.224Z,3.03
2018-01-29T22:01:57.839Z,3.17
2018-01-29T22:04:30.355Z,3.43
2018-01-29T22:07:02.927Z,3.10
2018-01-29T22:09:35.422Z,3.33
2018-01-29T22:12:07.932Z,3.83
2018-01-29T22:14:41.373Z,2.77
2018-01-29T22:17:13.911Z,2.80
2018-01-29T22:19:48.945Z,3.30
2018-01-29T22:22:21.471Z,3.87
2018-01-29T22:24:54.078Z,3.87
2018-01-29T22:27:27.781Z,4.63
2018-01-29T22:30:00.292Z,3.63
2018-01-29T22:32:32.805Z,3.60
2018-01-29T22:35:05.295Z,3.70
2018-01-29T22:37:37.801Z,3.40
2018-01-29T22:40:10.574Z,3.13
2018-01-29T22:42:43.086Z,2.77
2018-01-29T22:45:15.768Z,3.27
2018-01-29T22:47:49.192Z,3.27
2018-01-29T22:50:22.024Z,3.57
2018-01-29T22:52:54.541Z,3.40
2018-01-29T22:55:30.628Z,2.90
2018-01-29T22:58:03.294Z,3.67
2018-01-29T23:00:35.782Z,3.40
2018-01-29T23:03:08.315Z,3.47
2018-01-29T23:05:41.156Z,3.67
2018-01-29T23:08:13.663Z,2.97
2018-01-29T23:10:46.173Z,2.97
2018-01-29T23:13:18.661Z,2.93
2018-01-29T23:15:51.172Z,3.20
2018-01-29T23:18:23.706Z,3.30
2018-01-29T23:20:56.282Z,3.07
2018-01-29T23:23:28.795Z,3.40
2018-01-29T23:26:01.300Z,2.77
2018-01-29T23:28:33.795Z,3.67
2018-01-29T23:31:06.307Z,3.37
2018-01-29T23:33:38.802Z,4.10
2018-01-29T23:36:11.362Z,3.50
2018-01-29T23:38:43.851Z,3.37
2018-01-29T23:41:16.427Z,3.27
2018-01-29T23:43:48.931Z,3.33
2018-01-29T23:46:21.452Z,3.63
2018-01-29T23:48:53.938Z,3.97
2018-01-29T23:51:26.453Z,3.60
2018-01-29T23:53:59.001Z,3.43
2018-01-29T23:56:36.558Z,3.17
2018-01-29T23:59:09.047Z,3.57
